sensor_id;sensor_type;location;lat;lon;timestamp;pressure;altitude;pressure_sealevel;temperature;humidity
29197;BME280;62796;42.654;23.316;2022-11-20T00:01:17;93828.47;;;19.25;42.04
29197;BME280;62796;42.654;23.316;2022-11-20T00:03:42;93818.53;;;19.24;42.14
29197;BME280;62796;42.654;23.316;2022-11-20T00:06:11;93836.31;;;19.27;42.50
29197;BME280;62796;42.654;23.316;2022-11-20T00:08:36;93801.50;;;19.22;42.08
29197;BME280;62796;42.654;23.316;2022-11-20T00:11:13;93856.53;;;19.25;42.27
29197;BME280;62796;42.654;23.316;2022-11-20T00:13:39;93800.38;;;19.18;42.60
29197;BME280;62796;42.654;23.316;2022-11-20T00:16:06;93829.94;;;19.26;42.09
29197;BME280;62796;42.654;23.316;2022-11-20T00:18:33;93814.03;;;19.21;41.69
29197;BME280;62796;42.654;23.316;2022-11-20T00:21:04;93843.81;;;19.24;42.56
29197;BME280;62796;42.654;23.316;2022-11-20T00:23:30;93788.03;;;19.28;42.23
29197;BME280;62796;42.654;23.316;2022-11-20T00:25:55;93795.50;;;19.18;42.38
29197;BME280;62796;42.654;23.316;2022-11-20T00:28:21;93820.22;;;19.27;41.05
29197;BME280;62796;42.654;23.316;2022-11-20T00:30:46;93803.38;;;19.27;41.89
29197;BME280;62796;42.654;23.316;2022-11-20T00:33:11;93848.28;;;19.27;41.43
29197;BME280;62796;42.654;23.316;2022-11-20T00:35:37;93793.09;;;19.38;41.88
29197;BME280;62796;42.654;23.316;2022-11-20T00:38:02;93792.34;;;19.29;41.58
29197;BME280;62796;42.654;23.316;2022-11-20T00:40:28;93781.31;;;19.31;41.75
29197;BME280;62796;42.654;23.316;2022-11-20T00:42:53;93780.53;;;19.23;41.77
29197;BME280;62796;42.654;23.316;2022-11-20T00:45:19;93829.03;;;19.31;41.41
29197;BME280;62796;42.654;23.316;2022-11-20T00:47:44;93829.22;;;19.33;41.20
29197;BME280;62796;42.654;23.316;2022-11-20T00:50:09;93800.03;;;19.37;40.95
29197;BME280;62796;42.654;23.316;2022-11-20T00:52:35;93824.38;;;19.42;40.48
29197;BME280;62796;42.654;23.316;2022-11-20T00:55:00;93815.03;;;19.47;40.91
29197;BME280;62796;42.654;23.316;2022-11-20T00:57:25;93834.31;;;19.43;41.36
29197;BME280;62796;42.654;23.316;2022-11-20T00:59:51;93814.06;;;19.37;40.17
29197;BME280;62796;42.654;23.316;2022-11-20T01:02:16;93795.94;;;19.53;40.81
29197;BME280;62796;42.654;23.316;2022-11-20T01:04:42;93811.44;;;19.39;41.14
29197;BME280;62796;42.654;23.316;2022-11-20T01:07:07;93837.88;;;19.51;40.73
29197;BME280;62796;42.654;23.316;2022-11-20T01:09:33;93859.97;;;19.54;40.71
29197;BME280;62796;42.654;23.316;2022-11-20T01:11:58;93812.22;;;19.47;41.10
29197;BME280;62796;42.654;23.316;2022-11-20T01:14:24;93785.84;;;19.50;40.81
29197;BME280;62796;42.654;23.316;2022-11-20T01:16:50;93781.72;;;19.43;40.53
29197;BME280;62796;42.654;23.316;2022-11-20T01:19:21;93773.84;;;19.64;40.20
29197;BME280;62796;42.654;23.316;2022-11-20T01:21:53;93811.09;;;19.50;40.44
29197;BME280;62796;42.654;23.316;2022-11-20T01:24:20;93763.72;;;19.54;40.29
29197;BME280;62796;42.654;23.316;2022-11-20T01:26:48;93797.81;;;19.50;40.62
29197;BME280;62796;42.654;23.316;2022-11-20T01:29:16;93795.19;;;19.45;40.96
29197;BME280;62796;42.654;23.316;2022-11-20T01:31:42;93762.22;;;19.38;41.25
29197;BME280;62796;42.654;23.316;2022-11-20T01:34:14;93741.28;;;19.46;40.80
29197;BME280;62796;42.654;23.316;2022-11-20T01:36:40;93772.16;;;19.54;40.73
29197;BME280;62796;42.654;23.316;2022-11-20T01:39:18;93771.22;;;19.59;40.66
29197;BME280;62796;42.654;23.316;2022-11-20T01:41:44;93795.19;;;19.52;40.75
29197;BME280;62796;42.654;23.316;2022-11-20T01:47:21;93722.53;;;19.49;40.41
29197;BME280;62796;42.654;23.316;2022-11-20T01:49:54;93737.88;;;19.48;40.66
29197;BME280;62796;42.654;23.316;2022-11-20T01:52:32;93754.56;;;19.46;40.46
29197;BME280;62796;42.654;23.316;2022-11-20T01:55:16;93730.78;;;19.62;40.00
29197;BME280;62796;42.654;23.316;2022-11-20T01:57:44;93761.09;;;19.48;40.26
29197;BME280;62796;42.654;23.316;2022-11-20T02:00:14;93742.38;;;19.66;39.58
29197;BME280;62796;42.654;23.316;2022-11-20T02:02:43;93765.59;;;19.59;39.69
29197;BME280;62796;42.654;23.316;2022-11-20T02:05:34;93762.59;;;19.57;39.78
29197;BME280;62796;42.654;23.316;2022-11-20T02:08:03;93766.34;;;19.67;39.65
29197;BME280;62796;42.654;23.316;2022-11-20T02:10:29;93821.22;;;19.60;39.82
29197;BME280;62796;42.654;23.316;2022-11-20T02:12:55;93758.66;;;19.67;39.49
29197;BME280;62796;42.654;23.316;2022-11-20T02:15:39;93746.50;;;19.65;39.49
29197;BME280;62796;42.654;23.316;2022-11-20T02:18:05;93796.13;;;19.70;39.45
29197;BME280;62796;42.654;23.316;2022-11-20T02:20:32;93768.19;;;19.79;38.96
29197;BME280;62796;42.654;23.316;2022-11-20T02:23:03;93777.75;;;19.69;39.72
29197;BME280;62796;42.654;23.316;2022-11-20T02:25:32;93761.28;;;19.73;39.53
29197;BME280;62796;42.654;23.316;2022-11-20T02:27:58;93777.94;;;19.78;39.40
29197;BME280;62796;42.654;23.316;2022-11-20T02:30:23;93762.59;;;19.72;39.60
29197;BME280;62796;42.654;23.316;2022-11-20T02:32:49;93748.56;;;19.64;39.95
29197;BME280;62796;42.654;23.316;2022-11-20T02:37:51;93760.72;;;19.52;40.18
29197;BME280;62796;42.654;23.316;2022-11-20T02:40:18;93755.09;;;19.59;40.27
29197;BME280;62796;42.654;23.316;2022-11-20T02:42:43;93768.22;;;19.57;40.08
29197;BME280;62796;42.654;23.316;2022-11-20T02:45:09;93770.09;;;19.47;40.82
29197;BME280;62796;42.654;23.316;2022-11-20T02:47:35;93792.00;;;19.56;40.63
29197;BME280;62796;42.654;23.316;2022-11-20T02:50:00;93795.38;;;19.47;41.13
29197;BME280;62796;42.654;23.316;2022-11-20T02:52:26;93807.88;;;19.23;42.02
29197;BME280;62796;42.654;23.316;2022-11-20T02:54:52;93795.88;;;19.07;42.47
29197;BME280;62796;42.654;23.316;2022-11-20T02:57:17;93800.94;;;19.16;42.39
29197;BME280;62796;42.654;23.316;2022-11-20T02:59:43;93780.53;;;19.08;42.91
29197;BME280;62796;42.654;23.316;2022-11-20T03:02:08;93802.44;;;19.10;43.09
29197;BME280;62796;42.654;23.316;2022-11-20T03:04:34;93804.13;;;19.05;43.06
29197;BME280;62796;42.654;23.316;2022-11-20T03:06:59;93841.13;;;18.96;43.31
29197;BME280;62796;42.654;23.316;2022-11-20T03:09:25;93835.53;;;18.96;43.39
29197;BME280;62796;42.654;23.316;2022-11-20T03:11:50;93791.75;;;18.93;43.50
29197;BME280;62796;42.654;23.316;2022-11-20T03:14:16;93790.63;;;18.96;43.65
29197;BME280;62796;42.654;23.316;2022-11-20T03:16:42;93768.72;;;18.87;43.31
29197;BME280;62796;42.654;23.316;2022-11-20T03:19:07;93797.31;;;18.78;43.91
29197;BME280;62796;42.654;23.316;2022-11-20T03:21:33;93811.72;;;18.82;43.66
29197;BME280;62796;42.654;23.316;2022-11-20T03:24:00;93807.97;;;18.72;44.01
29197;BME280;62796;42.654;23.316;2022-11-20T03:26:26;93796.56;;;18.77;43.84
29197;BME280;62796;42.654;23.316;2022-11-20T03:28:57;93794.31;;;18.76;43.70
29197;BME280;62796;42.654;23.316;2022-11-20T03:31:26;93799.72;;;18.74;43.75
29197;BME280;62796;42.654;23.316;2022-11-20T03:33:52;93801.41;;;18.69;44.14
29197;BME280;62796;42.654;23.316;2022-11-20T03:36:18;93813.34;;;18.62;44.37
29197;BME280;62796;42.654;23.316;2022-11-20T03:38:45;93807.03;;;18.69;44.29
29197;BME280;62796;42.654;23.316;2022-11-20T03:41:22;93827.19;;;18.68;44.03
29197;BME280;62796;42.654;23.316;2022-11-20T03:43:52;93821.97;;;18.72;44.06
29197;BME280;62796;42.654;23.316;2022-11-20T03:46:18;93841.81;;;18.74;43.88
29197;BME280;62796;42.654;23.316;2022-11-20T03:48:43;93872.63;;;18.66;43.57
29197;BME280;62796;42.654;23.316;2022-11-20T03:51:18;93829.47;;;18.69;43.45
29197;BME280;62796;42.654;23.316;2022-11-20T03:53:45;93830.19;;;18.70;43.88
29197;BME280;62796;42.654;23.316;2022-11-20T03:56:12;93838.59;;;18.70;43.87
29197;BME280;62796;42.654;23.316;2022-11-20T03:58:38;93828.69;;;18.69;43.89
29197;BME280;62796;42.654;23.316;2022-11-20T04:01:12;93825.31;;;18.70;43.74
29197;BME280;62796;42.654;23.316;2022-11-20T04:03:39;93819.72;;;18.63;43.97
29197;BME280;62796;42.654;23.316;2022-11-20T04:06:10;93835.03;;;18.62;43.70
29197;BME280;62796;42.654;23.316;2022-11-20T04:08:36;93829.59;;;18.64;44.02
29197;BME280;62796;42.654;23.316;2022-11-20T04:11:17;93830.94;;;18.63;43.83
29197;BME280;62796;42.654;23.316;2022-11-20T04:13:46;93852.78;;;18.57;43.79
29197;BME280;62796;42.654;23.316;2022-11-20T04:16:12;93834.25;;;18.54;43.67
29197;BME280;62796;42.654;23.316;2022-11-20T04:18:38;93843.22;;;18.52;44.06
29197;BME280;62796;42.654;23.316;2022-11-20T04:21:05;93835.00;;;18.54;43.90
29197;BME280;62796;42.654;23.316;2022-11-20T04:23:30;93828.66;;;18.54;44.26
29197;BME280;62796;42.654;23.316;2022-11-20T04:26:08;93839.50;;;18.57;44.02
29197;BME280;62796;42.654;23.316;2022-11-20T04:28:34;93837.72;;;18.47;44.35
29197;BME280;62796;42.654;23.316;2022-11-20T04:33:29;93854.78;;;18.49;44.48
29197;BME280;62796;42.654;23.316;2022-11-20T04:35:54;93855.53;;;18.49;44.93
29197;BME280;62796;42.654;23.316;2022-11-20T04:38:20;93843.69;;;18.43;45.40
29197;BME280;62796;42.654;23.316;2022-11-20T04:40:45;93852.84;;;18.44;45.46
29197;BME280;62796;42.654;23.316;2022-11-20T04:43:11;93837.72;;;18.39;45.42
29197;BME280;62796;42.654;23.316;2022-11-20T04:45:36;93835.66;;;18.40;45.19
29197;BME280;62796;42.654;23.316;2022-11-20T04:48:02;93840.53;;;18.47;45.08
29197;BME280;62796;42.654;23.316;2022-11-20T04:50:27;93836.56;;;18.35;45.45
29197;BME280;62796;42.654;23.316;2022-11-20T04:52:52;93835.59;;;18.32;45.40
29197;BME280;62796;42.654;23.316;2022-11-20T04:55:18;93833.22;;;18.44;45.35
29197;BME280;62796;42.654;23.316;2022-11-20T04:57:43;93840.88;;;18.36;45.13
29197;BME280;62796;42.654;23.316;2022-11-20T05:00:09;93817.16;;;18.37;44.93
29197;BME280;62796;42.654;23.316;2022-11-20T05:02:35;93819.41;;;18.46;44.44
29197;BME280;62796;42.654;23.316;2022-11-20T05:05:00;93820.13;;;18.39;45.08
29197;BME280;62796;42.654;23.316;2022-11-20T05:07:25;93821.84;;;18.42;44.80
29197;BME280;62796;42.654;23.316;2022-11-20T05:09:51;93824.56;;;18.27;45.45
29197;BME280;62796;42.654;23.316;2022-11-20T05:12:16;93836.19;;;18.31;45.71
29197;BME280;62796;42.654;23.316;2022-11-20T05:14:42;93813.16;;;18.24;46.16
29197;BME280;62796;42.654;23.316;2022-11-20T05:17:10;93807.16;;;18.20;46.24
29197;BME280;62796;42.654;23.316;2022-11-20T05:19:35;93810.28;;;18.09;46.72
29197;BME280;62796;42.654;23.316;2022-11-20T05:22:01;93791.75;;;18.06;46.50
29197;BME280;62796;42.654;23.316;2022-11-20T05:24:26;93790.66;;;18.09;46.66
29197;BME280;62796;42.654;23.316;2022-11-20T05:26:51;93779.06;;;18.05;46.89
29197;BME280;62796;42.654;23.316;2022-11-20T05:29:17;93767.81;;;17.98;47.10
29197;BME280;62796;42.654;23.316;2022-11-20T05:31:42;93782.38;;;17.96;47.34
29197;BME280;62796;42.654;23.316;2022-11-20T05:34:08;93777.69;;;17.91;47.36
29197;BME280;62796;42.654;23.316;2022-11-20T05:36:33;93775.25;;;17.95;47.17
29197;BME280;62796;42.654;23.316;2022-11-20T05:38:59;93792.28;;;17.97;47.09
29197;BME280;62796;42.654;23.316;2022-11-20T05:41:24;93785.56;;;18.00;47.07
29197;BME280;62796;42.654;23.316;2022-11-20T05:43:50;93843.31;;;18.03;46.51
29197;BME280;62796;42.654;23.316;2022-11-20T05:46:20;93785.75;;;18.02;45.92
29197;BME280;62796;42.654;23.316;2022-11-20T05:48:46;93782.75;;;18.00;46.11
29197;BME280;62796;42.654;23.316;2022-11-20T05:51:15;93776.06;;;18.03;45.85
29197;BME280;62796;42.654;23.316;2022-11-20T05:53:41;93772.16;;;18.06;44.63
29197;BME280;62796;42.654;23.316;2022-11-20T05:56:10;93784.72;;;18.20;44.20
29197;BME280;62796;42.654;23.316;2022-11-20T05:58:36;93815.00;;;18.22;44.71
29197;BME280;62796;42.654;23.316;2022-11-20T06:01:07;93821.34;;;18.22;45.43
29197;BME280;62796;42.654;23.316;2022-11-20T06:03:34;93802.31;;;18.21;45.13
29197;BME280;62796;42.654;23.316;2022-11-20T06:06:00;93822.28;;;18.17;45.50
29197;BME280;62796;42.654;23.316;2022-11-20T06:08:28;93822.28;;;18.17;45.07
29197;BME280;62796;42.654;23.316;2022-11-20T06:10:53;93832.19;;;18.18;44.81
29197;BME280;62796;42.654;23.316;2022-11-20T06:13:19;93817.06;;;18.21;44.61
29197;BME280;62796;42.654;23.316;2022-11-20T06:15:51;93816.16;;;18.27;44.64
29197;BME280;62796;42.654;23.316;2022-11-20T06:18:18;93837.81;;;18.26;44.68
29197;BME280;62796;42.654;23.316;2022-11-20T06:20:44;93809.84;;;18.34;44.46
29197;BME280;62796;42.654;23.316;2022-11-20T06:23:09;93809.69;;;18.39;44.48
29197;BME280;62796;42.654;23.316;2022-11-20T06:25:39;93825.44;;;18.50;44.65
29197;BME280;62796;42.654;23.316;2022-11-20T06:28:05;93845.78;;;18.43;44.26
29197;BME280;62796;42.654;23.316;2022-11-20T06:30:30;93845.38;;;18.46;44.54
29197;BME280;62796;42.654;23.316;2022-11-20T06:32:56;93842.75;;;18.41;44.87
29197;BME280;62796;42.654;23.316;2022-11-20T06:35:21;93841.06;;;18.38;44.69
29197;BME280;62796;42.654;23.316;2022-11-20T06:37:46;93828.94;;;18.43;44.51
29197;BME280;62796;42.654;23.316;2022-11-20T06:40:12;93832.75;;;18.53;43.96
29197;BME280;62796;42.654;23.316;2022-11-20T06:42:38;93837.72;;;18.47;44.08
29197;BME280;62796;42.654;23.316;2022-11-20T06:45:03;93837.25;;;18.56;43.96
29197;BME280;62796;42.654;23.316;2022-11-20T06:47:29;93840.16;;;18.78;42.89
29197;BME280;62796;42.654;23.316;2022-11-20T06:49:54;93838.94;;;19.17;41.66
29197;BME280;62796;42.654;23.316;2022-11-20T06:52:20;93842.75;;;19.58;40.33
29197;BME280;62796;42.654;23.316;2022-11-20T06:54:45;93837.31;;;19.82;39.30
29197;BME280;62796;42.654;23.316;2022-11-20T06:57:11;93895.19;;;20.23;38.90
29197;BME280;62796;42.654;23.316;2022-11-20T06:59:36;93864.25;;;20.23;38.73
29197;BME280;62796;42.654;23.316;2022-11-20T07:02:01;93848.28;;;20.41;38.70
29197;BME280;62796;42.654;23.316;2022-11-20T07:04:27;93862.53;;;20.51;38.50
29197;BME280;62796;42.654;23.316;2022-11-20T07:06:52;93864.06;;;20.14;39.70
29197;BME280;62796;42.654;23.316;2022-11-20T07:09:18;93868.19;;;20.20;39.86
29197;BME280;62796;42.654;23.316;2022-11-20T07:11:43;93849.09;;;20.11;40.08
29197;BME280;62796;42.654;23.316;2022-11-20T07:14:09;93857.75;;;19.83;40.86
29197;BME280;62796;42.654;23.316;2022-11-20T07:16:34;93849.09;;;19.81;41.37
29197;BME280;62796;42.654;23.316;2022-11-20T07:18:59;93855.84;;;19.78;41.15
29197;BME280;62796;42.654;23.316;2022-11-20T07:21:25;93865.22;;;19.50;40.85
29197;BME280;62796;42.654;23.316;2022-11-20T07:23:50;93867.41;;;19.37;41.21
29197;BME280;62796;42.654;23.316;2022-11-20T07:26:15;93848.28;;;19.20;41.35
29197;BME280;62796;42.654;23.316;2022-11-20T07:28:44;93856.50;;;19.10;41.71
29197;BME280;62796;42.654;23.316;2022-11-20T07:31:10;93857.81;;;19.09;42.47
29197;BME280;62796;42.654;23.316;2022-11-20T07:33:36;93886.63;;;19.02;42.61
29197;BME280;62796;42.654;23.316;2022-11-20T07:36:02;93889.38;;;18.95;42.32
29197;BME280;62796;42.654;23.316;2022-11-20T07:38:27;93848.41;;;18.84;42.32
29197;BME280;62796;42.654;23.316;2022-11-20T07:40:54;93854.19;;;18.86;42.85
29197;BME280;62796;42.654;23.316;2022-11-20T07:43:20;93868.09;;;18.99;42.36
29197;BME280;62796;42.654;23.316;2022-11-20T07:45:46;93884.28;;;18.86;42.84
29197;BME280;62796;42.654;23.316;2022-11-20T07:48:11;93857.75;;;18.87;42.80
29197;BME280;62796;42.654;23.316;2022-11-20T07:50:36;93870.63;;;18.82;42.84
29197;BME280;62796;42.654;23.316;2022-11-20T07:53:05;93865.06;;;18.97;42.94
29197;BME280;62796;42.654;23.316;2022-11-20T07:55:31;93857.22;;;18.96;42.61
29197;BME280;62796;42.654;23.316;2022-11-20T07:57:57;93883.94;;;18.89;43.20
29197;BME280;62796;42.654;23.316;2022-11-20T08:00:24;93899.13;;;19.01;42.75
29197;BME280;62796;42.654;23.316;2022-11-20T08:02:50;93896.75;;;19.20;42.86
29197;BME280;62796;42.654;23.316;2022-11-20T08:05:15;93885.91;;;19.24;42.68
29197;BME280;62796;42.654;23.316;2022-11-20T08:07:42;93898.66;;;19.25;43.64
29197;BME280;62796;42.654;23.316;2022-11-20T08:10:10;93872.22;;;19.13;43.36
29197;BME280;62796;42.654;23.316;2022-11-20T08:12:43;93865.09;;;19.12;43.54
29197;BME280;62796;42.654;23.316;2022-11-20T08:15:27;93874.53;;;19.38;43.93
29197;BME280;62796;42.654;23.316;2022-11-20T08:18:05;93848.38;;;19.58;43.40
29197;BME280;62796;42.654;23.316;2022-11-20T08:20:31;93873.03;;;19.37;42.50
29197;BME280;62796;42.654;23.316;2022-11-20T08:23:00;93880.19;;;19.53;43.39
29197;BME280;62796;42.654;23.316;2022-11-20T08:25:27;93892.19;;;19.76;43.54
29197;BME280;62796;42.654;23.316;2022-11-20T08:27:53;93882.56;;;19.33;44.46
29197;BME280;62796;42.654;23.316;2022-11-20T08:30:18;93916.44;;;19.28;44.80
29197;BME280;62796;42.654;23.316;2022-11-20T08:32:44;93897.41;;;19.57;43.70
29197;BME280;62796;42.654;23.316;2022-11-20T08:35:09;93868.78;;;19.81;43.51
29197;BME280;62796;42.654;23.316;2022-11-20T08:37:35;93893.50;;;19.90;43.13
29197;BME280;62796;42.654;23.316;2022-11-20T08:40:00;93888.81;;;20.00;42.65
29197;BME280;62796;42.654;23.316;2022-11-20T08:42:25;93906.44;;;19.85;42.41
29197;BME280;62796;42.654;23.316;2022-11-20T08:44:51;93921.44;;;20.03;41.67
29197;BME280;62796;42.654;23.316;2022-11-20T08:47:16;93930.22;;;20.00;42.53
29197;BME280;62796;42.654;23.316;2022-11-20T08:49:42;93939.59;;;20.02;43.82
29197;BME280;62796;42.654;23.316;2022-11-20T08:52:07;93937.53;;;20.10;44.84
29197;BME280;62796;42.654;23.316;2022-11-20T08:54:32;93936.06;;;20.09;44.86
29197;BME280;62796;42.654;23.316;2022-11-20T08:56:58;93933.44;;;20.19;45.55
29197;BME280;62796;42.654;23.316;2022-11-20T08:59:23;93938.47;;;20.20;45.93
29197;BME280;62796;42.654;23.316;2022-11-20T09:01:49;93911.66;;;20.19;43.10
29197;BME280;62796;42.654;23.316;2022-11-20T09:04:15;93925.38;;;20.15;44.00
29197;BME280;62796;42.654;23.316;2022-11-20T09:06:40;93938.84;;;20.17;44.55
29197;BME280;62796;42.654;23.316;2022-11-20T09:09:06;93939.41;;;20.00;47.01
29197;BME280;62796;42.654;23.316;2022-11-20T09:11:31;93922.56;;;19.85;45.66
29197;BME280;62796;42.654;23.316;2022-11-20T09:13:57;93934.56;;;19.19;47.10
29197;BME280;62796;42.654;23.316;2022-11-20T09:16:22;93934.16;;;19.15;48.44
29197;BME280;62796;42.654;23.316;2022-11-20T09:18:49;93948.81;;;18.50;44.32
29197;BME280;62796;42.654;23.316;2022-11-20T09:21:15;93928.16;;;18.11;48.14
29197;BME280;62796;42.654;23.316;2022-11-20T09:23:40;93922.66;;;17.78;50.46
29197;BME280;62796;42.654;23.316;2022-11-20T09:26:11;93951.03;;;17.40;51.81
29197;BME280;62796;42.654;23.316;2022-11-20T09:28:38;93926.31;;;16.97;53.86
29197;BME280;62796;42.654;23.316;2022-11-20T09:31:08;93919.69;;;16.74;54.75
29197;BME280;62796;42.654;23.316;2022-11-20T09:33:34;93929.16;;;16.58;56.02
29197;BME280;62796;42.654;23.316;2022-11-20T09:36:00;93933.69;;;16.61;56.62
29197;BME280;62796;42.654;23.316;2022-11-20T09:38:25;93891.09;;;16.55;57.43
29197;BME280;62796;42.654;23.316;2022-11-20T09:41:05;93898.03;;;16.88;57.63
29197;BME280;62796;42.654;23.316;2022-11-20T09:46:28;93885.84;;;17.32;56.05
29197;BME280;62796;42.654;23.316;2022-11-20T09:49:06;93897.47;;;17.57;56.25
29197;BME280;62796;42.654;23.316;2022-11-20T09:56:50;93882.47;;;18.24;55.20
29197;BME280;62796;42.654;23.316;2022-11-20T09:59:40;93876.97;;;18.75;54.25
29197;BME280;62796;42.654;23.316;2022-11-20T10:04:49;93896.66;;;19.56;52.93
29197;BME280;62796;42.654;23.316;2022-11-20T10:07:25;93891.44;;;19.98;51.71
29197;BME280;62796;42.654;23.316;2022-11-20T10:09:55;93877.13;;;20.57;51.80
29197;BME280;62796;42.654;23.316;2022-11-20T10:13:17;93882.06;;;20.96;51.00
29197;BME280;62796;42.654;23.316;2022-11-20T10:29:12;93871.91;;;21.40;48.05
29197;BME280;62796;42.654;23.316;2022-11-20T10:32:01;93874.31;;;21.12;49.62
29197;BME280;62796;42.654;23.316;2022-11-20T10:35:05;93861.63;;;20.88;49.23
29197;BME280;62796;42.654;23.316;2022-11-20T10:37:34;93855.44;;;20.42;49.92
29197;BME280;62796;42.654;23.316;2022-11-20T10:40:23;93845.31;;;20.16;50.82
29197;BME280;62796;42.654;23.316;2022-11-20T10:42:57;93862.53;;;19.37;53.15
29197;BME280;62796;42.654;23.316;2022-11-20T10:47:57;93870.44;;;19.54;53.21
29197;BME280;62796;42.654;23.316;2022-11-20T10:50:27;93870.00;;;19.19;53.76
29197;BME280;62796;42.654;23.316;2022-11-20T10:56:21;93875.22;;;19.15;55.72
29197;BME280;62796;42.654;23.316;2022-11-20T10:59:28;93897.72;;;19.30;54.31
29197;BME280;62796;42.654;23.316;2022-11-20T11:01:42;93886.94;;;19.50;53.44
29197;BME280;62796;42.654;23.316;2022-11-20T11:04:34;93910.13;;;19.43;54.29
29197;BME280;62796;42.654;23.316;2022-11-20T11:07:09;93907.50;;;19.45;54.48
29197;BME280;62796;42.654;23.316;2022-11-20T11:09:41;93948.31;;;19.46;55.28
29197;BME280;62796;42.654;23.316;2022-11-20T11:12:08;93989.72;;;19.09;57.10
29197;BME280;62796;42.654;23.316;2022-11-20T11:14:55;93959.63;;;17.76;45.17
29197;BME280;62796;42.654;23.316;2022-11-20T11:20:14;93963.34;;;16.90;50.32
29197;BME280;62796;42.654;23.316;2022-11-20T11:22:55;93957.97;;;16.27;51.97
29197;BME280;62796;42.654;23.316;2022-11-20T11:25:34;93935.31;;;15.72;52.59
29197;BME280;62796;42.654;23.316;2022-11-20T11:28:03;93895.78;;;15.68;53.39
29197;BME280;62796;42.654;23.316;2022-11-20T11:30:30;93932.44;;;15.46;55.02
29197;BME280;62796;42.654;23.316;2022-11-20T11:33:08;93932.09;;;15.18;53.71
29197;BME280;62796;42.654;23.316;2022-11-20T11:35:44;93945.09;;;14.96;56.36
29197;BME280;62796;42.654;23.316;2022-11-20T11:38:15;93909.00;;;14.85;54.61
29197;BME280;62796;42.654;23.316;2022-11-20T11:40:41;93907.34;;;14.77;55.73
29197;BME280;62796;42.654;23.316;2022-11-20T11:43:21;93900.34;;;14.52;56.35
29197;BME280;62796;42.654;23.316;2022-11-20T11:49:20;93895.97;;;14.56;57.07
29197;BME280;62796;42.654;23.316;2022-11-20T11:52:10;93897.19;;;14.61;57.22
29197;BME280;62796;42.654;23.316;2022-11-20T11:55:00;93935.91;;;14.64;55.73
29197;BME280;62796;42.654;23.316;2022-11-20T11:57:33;93892.81;;;14.65;55.67
29197;BME280;62796;42.654;23.316;2022-11-20T12:03:00;93923.09;;;14.93;52.44
29197;BME280;62796;42.654;23.316;2022-11-20T12:05:28;93848.56;;;14.93;53.62
29197;BME280;62796;42.654;23.316;2022-11-20T12:08:03;93864.41;;;14.85;55.00
29197;BME280;62796;42.654;23.316;2022-11-20T12:15:59;93896.75;;;14.75;54.42
29197;BME280;62796;42.654;23.316;2022-11-20T12:18:25;93911.44;;;14.57;57.84
29197;BME280;62796;42.654;23.316;2022-11-20T12:24:10;93916.97;;;14.38;56.70
29197;BME280;62796;42.654;23.316;2022-11-20T12:26:52;93900.06;;;14.31;56.32
29197;BME280;62796;42.654;23.316;2022-11-20T12:32:22;93932.63;;;14.17;57.20
29197;BME280;62796;42.654;23.316;2022-11-20T12:34:58;93906.25;;;14.24;57.03
29197;BME280;62796;42.654;23.316;2022-11-20T12:37:38;93869.78;;;14.22;57.76
29197;BME280;62796;42.654;23.316;2022-11-20T12:40:41;93835.28;;;14.30;56.88
29197;BME280;62796;42.654;23.316;2022-11-20T12:43:22;93795.84;;;14.45;56.37
29197;BME280;62796;42.654;23.316;2022-11-20T13:00:14;93810.13;;;15.63;54.81
29197;BME280;62796;42.654;23.316;2022-11-20T13:08:23;93822.91;;;15.72;58.08
29197;BME280;62796;42.654;23.316;2022-11-20T13:11:03;93838.91;;;15.84;58.74
29197;BME280;62796;42.654;23.316;2022-11-20T13:16:19;93868.34;;;15.98;58.49
29197;BME280;62796;42.654;23.316;2022-11-20T13:18:49;93851.88;;;15.69;58.25
29197;BME280;62796;42.654;23.316;2022-11-20T13:21:23;93832.19;;;15.03;60.78
29197;BME280;62796;42.654;23.316;2022-11-20T13:24:21;93837.38;;;14.80;62.04
29197;BME280;62796;42.654;23.316;2022-11-20T13:27:20;93877.28;;;14.88;61.78
29197;BME280;62796;42.654;23.316;2022-11-20T13:30:10;93863.53;;;15.09;62.07
29197;BME280;62796;42.654;23.316;2022-11-20T13:32:50;93842.94;;;15.12;61.90
29197;BME280;62796;42.654;23.316;2022-11-20T13:35:54;93893.69;;;15.11;60.89
29197;BME280;62796;42.654;23.316;2022-11-20T13:38:20;93882.34;;;15.22;61.57
29197;BME280;62796;42.654;23.316;2022-11-20T13:40:58;93881.34;;;15.38;60.72
29197;BME280;62796;42.654;23.316;2022-11-20T13:43:42;93872.59;;;15.47;59.99
29197;BME280;62796;42.654;23.316;2022-11-20T13:46:09;93875.13;;;15.45;59.61
29197;BME280;62796;42.654;23.316;2022-11-20T13:48:43;93869.34;;;15.56;58.82
29197;BME280;62796;42.654;23.316;2022-11-20T13:51:23;93879.50;;;15.72;58.76
29197;BME280;62796;42.654;23.316;2022-11-20T14:01:49;93893.69;;;15.87;58.93
29197;BME280;62796;42.654;23.316;2022-11-20T14:04:18;93888.53;;;16.04;58.52
29197;BME280;62796;42.654;23.316;2022-11-20T14:06:46;93882.63;;;16.08;58.29
29197;BME280;62796;42.654;23.316;2022-11-20T14:09:28;93895.22;;;16.15;58.09
29197;BME280;62796;42.654;23.316;2022-11-20T14:11:55;93885.19;;;16.19;57.68
29197;BME280;62796;42.654;23.316;2022-11-20T14:14:25;93880.59;;;16.22;57.66
29197;BME280;62796;42.654;23.316;2022-11-20T14:16:52;93890.34;;;16.28;57.78
29197;BME280;62796;42.654;23.316;2022-11-20T14:21:47;93875.00;;;16.35;57.46
29197;BME280;62796;42.654;23.316;2022-11-20T14:24:18;93879.81;;;16.47;56.56
29197;BME280;62796;42.654;23.316;2022-11-20T14:26:44;93876.41;;;16.54;56.89
29197;BME280;62796;42.654;23.316;2022-11-20T14:29:18;93876.91;;;16.53;56.77
29197;BME280;62796;42.654;23.316;2022-11-20T14:31:44;93878.63;;;16.43;56.89
29197;BME280;62796;42.654;23.316;2022-11-20T14:34:31;93880.69;;;16.29;58.02